createdAt,value
2018-10-11T00:01:21.871Z,7.43
2018-10-11T00:03:50.036Z,7.43
2018-10-11T00:06:18.185Z,6.20
2018-10-11T00:08:46.396Z,6.90
2018-10-11T00:11:14.540Z,6.70
2018-10-11T00:13:42.717Z,6.50
2018-10-11T00:16:10.905Z,7.17
2018-10-11T00:18:39.076Z,6.63
2018-10-11T00:21:07.236Z,5.43
2018-10-11T00:23:35.401Z,5.93
2018-10-11T00:26:03.881Z,4.97
2018-10-11T00:28:32.039Z,3.60
2018-10-11T00:31:00.217Z,3.97
2018-10-11T00:33:28.366Z,6.47
2018-10-11T00:35:56.774Z,5.77
2018-10-11T00:38:24.969Z,5.37
2018-10-11T00:40:53.144Z,5.70
2018-10-11T00:43:21.301Z,5.00
2018-10-11T00:45:49.481Z,4.40
2018-10-11T00:48:17.660Z,4.13
2018-10-11T00:50:45.849Z,3.50
2018-10-11T00:53:14.104Z,3.73
2018-10-11T00:55:42.282Z,3.67
2018-10-11T00:58:10.448Z,3.47
2018-10-11T01:00:38.616Z,3.80
2018-10-11T01:03:06.796Z,3.80
2018-10-11T01:05:34.994Z,4.00
2018-10-11T01:08:03.250Z,4.40
2018-10-11T01:10:31.429Z,4.20
2018-10-11T01:12:59.580Z,3.80
2018-10-11T01:15:27.751Z,3.40
2018-10-11T01:17:55.938Z,3.57
2018-10-11T01:20:24.866Z,4.13
2018-10-11T01:22:53.013Z,3.30
2018-10-11T01:25:21.307Z,3.67
2018-10-11T01:27:49.468Z,4.23
2018-10-11T01:30:17.645Z,4.50
2018-10-11T01:32:46.073Z,3.50
2018-10-11T01:35:14.261Z,4.03
2018-10-11T01:37:42.448Z,5.57
2018-10-11T01:40:10.683Z,6.30
2018-10-11T01:42:38.843Z,4.30
2018-10-11T01:45:07.505Z,3.60
2018-10-11T01:47:35.662Z,3.30
2018-10-11T01:50:04.115Z,2.93
2018-10-11T01:52:32.268Z,6.63
2018-10-11T01:55:00.469Z,3.50
2018-10-11T01:57:28.629Z,3.87
2018-10-11T01:59:56.933Z,3.60
2018-10-11T02:02:25.090Z,4.00
2018-10-11T02:04:53.233Z,4.13
2018-10-11T02:07:21.424Z,6.17
2018-10-11T02:09:49.582Z,6.03
2018-10-11T02:12:17.753Z,4.70
2018-10-11T02:14:45.960Z,5.50
2018-10-11T02:17:14.166Z,4.23
2018-10-11T02:19:42.313Z,4.33
2018-10-11T02:22:10.491Z,3.83
2018-10-11T02:24:38.647Z,3.50
2018-10-11T02:27:06.846Z,3.37
2018-10-11T02:29:35.018Z,3.30
2018-10-11T02:32:03.322Z,3.10
2018-10-11T02:34:31.377Z,2.67
2018-10-11T02:36:59.554Z,2.73
2018-10-11T02:39:27.709Z,3.10
2018-10-11T02:41:55.901Z,3.90
2018-10-11T02:44:24.057Z,2.63
2018-10-11T02:46:52.237Z,3.47
2018-10-11T02:49:20.826Z,3.70
2018-10-11T02:51:49.005Z,3.87
2018-10-11T02:54:17.171Z,3.83
2018-10-11T02:56:45.360Z,2.90
2018-10-11T02:59:30.077Z,3.20
2018-10-11T03:01:58.751Z,4.67
2018-10-11T03:04:28.420Z,3.43
2018-10-11T03:06:56.853Z,3.00
2018-10-11T03:09:25.285Z,4.00
2018-10-11T03:11:53.740Z,2.70
2018-10-11T03:14:21.901Z,3.47
2018-10-11T03:16:50.191Z,2.83
2018-10-11T03:19:18.432Z,3.80
2018-10-11T03:21:46.634Z,3.07
2018-10-11T03:24:14.922Z,2.90
2018-10-11T03:26:43.082Z,2.47
2018-10-11T03:29:11.345Z,2.23
2018-10-11T03:31:39.618Z,2.47
2018-10-11T03:34:07.777Z,2.23
2018-10-11T03:36:35.981Z,2.20
2018-10-11T03:39:04.740Z,2.20
2018-10-11T03:41:32.941Z,2.47
2018-10-11T03:44:01.193Z,2.57
2018-10-11T03:46:29.449Z,4.10
2018-10-11T03:48:57.645Z,3.97
2018-10-11T03:51:25.908Z,2.90
2018-10-11T03:53:54.082Z,2.63
2018-10-11T03:59:15.048Z,2.97
2018-10-11T04:01:43.317Z,2.30
2018-10-11T04:04:11.583Z,2.70
2018-10-11T04:06:39.853Z,2.30
2018-10-11T04:09:08.113Z,2.97
2018-10-11T04:11:36.312Z,3.67
2018-10-11T04:14:04.552Z,4.90
2018-10-11T04:16:32.760Z,3.50
2018-10-11T04:19:01.005Z,2.50
2018-10-11T04:21:29.173Z,3.10
2018-10-11T04:23:57.378Z,2.97
2018-10-11T04:26:25.630Z,3.30
2018-10-11T04:28:54.062Z,3.57
2018-10-11T04:31:22.281Z,3.53
2018-10-11T04:33:50.477Z,4.43
2018-10-11T04:36:18.725Z,3.87
2018-10-11T04:38:46.936Z,4.17
2018-10-11T04:41:15.210Z,3.80
2018-10-11T04:43:43.517Z,3.00
2018-10-11T04:46:11.745Z,4.43
2018-10-11T04:48:39.933Z,3.80
2018-10-11T04:51:08.197Z,3.27
2018-10-11T04:53:36.550Z,3.10
2018-10-11T04:56:05.075Z,3.33
2018-10-11T04:58:33.345Z,3.30
2018-10-11T05:01:01.603Z,2.97
2018-10-11T05:03:29.799Z,4.03
2018-10-11T05:05:58.125Z,3.77
2018-10-11T05:08:26.342Z,3.47
2018-10-11T05:10:54.597Z,3.27
2018-10-11T05:13:34.860Z,3.30
2018-10-11T05:16:03.184Z,3.37
2018-10-11T05:18:31.449Z,3.73
2018-10-11T05:20:59.677Z,2.63
2018-10-11T05:23:27.890Z,3.50
2018-10-11T05:25:56.180Z,3.37
2018-10-11T05:28:24.369Z,3.40
2018-10-11T05:30:52.637Z,2.60
2018-10-11T05:33:20.817Z,2.40
2018-10-11T05:35:48.981Z,3.30
2018-10-11T05:38:17.299Z,3.10
2018-10-11T05:40:45.414Z,2.20
2018-10-11T05:43:14.134Z,2.17
2018-10-11T05:45:44.961Z,2.50
2018-10-11T05:48:13.498Z,2.90
2018-10-11T05:50:41.679Z,4.43
2018-10-11T05:53:09.865Z,2.60
2018-10-11T05:55:38.020Z,2.83
2018-10-11T05:58:06.293Z,4.17
2018-10-11T06:00:34.569Z,5.47
2018-10-11T06:03:03.829Z,4.23
2018-10-11T06:05:32.229Z,4.10
2018-10-11T06:08:01.720Z,4.10
2018-10-11T06:10:31.169Z,3.60
2018-10-11T06:12:59.340Z,3.30
2018-10-11T06:15:27.564Z,3.00
2018-10-11T06:17:55.753Z,2.77
2018-10-11T06:20:23.907Z,2.43
2018-10-11T06:22:52.070Z,3.10
2018-10-11T06:25:20.297Z,3.23
2018-10-11T06:27:48.448Z,3.33
2018-10-11T06:30:16.707Z,6.20
2018-10-11T06:32:45.187Z,5.33
2018-10-11T06:35:13.672Z,5.10
2018-10-11T06:40:40.769Z,3.70
2018-10-11T06:43:08.952Z,4.10
2018-10-11T06:45:37.129Z,2.90
2018-10-11T06:48:06.771Z,3.00
2018-10-11T06:50:35.089Z,2.47
2018-10-11T06:53:03.504Z,2.53
2018-10-11T06:55:31.683Z,3.47
2018-10-11T06:57:59.883Z,3.40
2018-10-11T07:00:28.100Z,2.77
2018-10-11T07:02:56.254Z,3.30
2018-10-11T07:05:24.475Z,5.10
2018-10-11T07:07:52.642Z,4.40
2018-10-11T07:10:20.837Z,4.40
2018-10-11T07:12:48.980Z,6.33
2018-10-11T07:15:17.385Z,6.13
2018-10-11T07:17:45.539Z,5.10
2018-10-11T07:20:13.729Z,4.60
2018-10-11T07:22:41.886Z,4.60
2018-10-11T07:25:10.064Z,4.53
2018-10-11T07:27:38.220Z,4.87
2018-10-11T07:30:06.565Z,5.40
2018-10-11T07:32:34.765Z,5.50
2018-10-11T07:35:03.048Z,4.43
2018-10-11T07:37:31.151Z,4.17
2018-10-11T07:39:59.337Z,5.73
2018-10-11T07:42:27.725Z,4.37
2018-10-11T07:44:55.937Z,4.80
2018-10-11T07:47:24.110Z,6.37
2018-10-11T07:49:52.308Z,3.50
2018-10-11T07:52:20.685Z,3.17
2018-10-11T07:54:48.856Z,5.27
2018-10-11T07:57:17.026Z,4.60
2018-10-11T07:59:45.188Z,2.70
2018-10-11T08:02:13.934Z,3.30
2018-10-11T08:04:42.084Z,4.40
2018-10-11T08:07:10.370Z,3.80
2018-10-11T08:09:38.416Z,3.43
2018-10-11T08:12:06.943Z,2.77
2018-10-11T08:14:35.046Z,3.00
2018-10-11T08:17:03.415Z,3.07
2018-10-11T08:19:31.732Z,2.40
2018-10-11T08:21:59.607Z,2.40
2018-10-11T08:24:27.831Z,2.00
2018-10-11T08:26:55.982Z,3.43
2018-10-11T08:29:24.121Z,2.60
2018-10-11T08:31:52.321Z,2.40
2018-10-11T08:34:20.476Z,2.60
2018-10-11T08:36:48.658Z,2.90
2018-10-11T08:39:16.828Z,2.93
2018-10-11T08:41:45.033Z,2.40
2018-10-11T08:44:13.646Z,3.20
2018-10-11T08:46:41.971Z,3.20
2018-10-11T08:49:10.382Z,3.00
2018-10-11T08:51:38.907Z,2.33
2018-10-11T08:55:12.653Z,2.73
2018-10-11T08:57:40.837Z,2.73
2018-10-11T09:00:09.790Z,2.60
2018-10-11T09:02:38.348Z,2.97
2018-10-11T09:05:06.780Z,2.93
2018-10-11T09:07:35.065Z,3.50
2018-10-11T09:10:03.531Z,3.10
2018-10-11T09:12:31.740Z,3.13
2018-10-11T09:14:59.889Z,3.13
2018-10-11T09:17:28.071Z,3.03
2018-10-11T09:19:56.368Z,2.83
2018-10-11T09:22:25.152Z,2.50
2018-10-11T09:24:53.349Z,3.00
2018-10-11T09:27:21.547Z,2.43
2018-10-11T09:29:49.704Z,2.60
2018-10-11T09:32:17.902Z,2.10
2018-10-11T09:34:46.190Z,2.40
2018-10-11T09:37:14.361Z,2.10
2018-10-11T09:39:42.529Z,1.90
2018-10-11T09:42:10.710Z,1.60
2018-10-11T09:44:38.883Z,2.50
2018-10-11T09:47:07.171Z,2.10
2018-10-11T09:49:35.320Z,1.67
2018-10-11T09:52:03.513Z,1.80
2018-10-11T09:54:31.762Z,2.10
2018-10-11T09:57:32.313Z,1.50
2018-10-11T10:00:01.553Z,1.67
2018-10-11T10:02:30.211Z,1.93
2018-10-11T10:05:00.452Z,3.23
2018-10-11T10:07:28.683Z,2.23
2018-10-11T10:09:56.835Z,1.67
2018-10-11T10:12:25.013Z,1.60
2018-10-11T10:14:53.585Z,2.10
2018-10-11T10:17:21.941Z,2.00
2018-10-11T10:19:50.098Z,1.70
2018-10-11T10:22:18.272Z,2.23
2018-10-11T10:24:46.428Z,1.80
2018-10-11T10:27:14.663Z,2.37
2018-10-11T10:29:42.779Z,2.23
2018-10-11T10:32:10.945Z,1.87
2018-10-11T10:34:39.124Z,1.73
2018-10-11T10:37:07.315Z,1.80
2018-10-11T10:39:35.510Z,2.10
2018-10-11T10:42:03.669Z,1.97
2018-10-11T10:44:31.892Z,1.80
2018-10-11T10:47:00.080Z,2.30
2018-10-11T10:49:28.275Z,2.10
2018-10-11T10:51:56.454Z,2.20
2018-10-11T10:54:28.144Z,2.10
2018-10-11T10:56:56.721Z,2.97
2018-10-11T10:59:25.096Z,1.60
2018-10-11T11:01:53.400Z,1.90
2018-10-11T11:04:21.600Z,1.90
2018-10-11T11:06:49.827Z,1.80
2018-10-11T11:09:18.083Z,2.50
2018-10-11T11:11:46.300Z,2.80
2018-10-11T11:14:15.624Z,3.03
2018-10-11T11:16:44.169Z,2.20
2018-10-11T11:19:12.581Z,2.30
2018-10-11T11:21:40.757Z,3.27
2018-10-11T11:24:08.970Z,2.87
2018-10-11T11:26:38.737Z,2.80
2018-10-11T11:29:07.109Z,3.20
2018-10-11T11:31:35.320Z,3.03
2018-10-11T11:34:03.849Z,2.77
2018-10-11T11:36:32.045Z,3.30
2018-10-11T11:39:00.245Z,4.53
2018-10-11T11:41:28.416Z,3.60
2018-10-11T11:43:56.612Z,3.70
2018-10-11T11:46:24.776Z,3.30
2018-10-11T11:48:52.966Z,2.70
2018-10-11T11:51:21.136Z,2.97
2018-10-11T11:53:49.346Z,2.83
2018-10-11T11:56:17.513Z,2.47
2018-10-11T11:58:45.704Z,2.80
2018-10-11T12:01:13.878Z,3.03
2018-10-11T12:03:42.074Z,3.03
2018-10-11T12:06:10.654Z,2.43
2018-10-11T12:08:40.021Z,2.93
2018-10-11T12:11:08.273Z,5.17
2018-10-11T12:13:36.485Z,3.80
2018-10-11T12:16:04.700Z,2.67
2018-10-11T12:18:32.870Z,2.80
2018-10-11T12:21:01.069Z,2.60
2018-10-11T12:23:29.249Z,2.57
2018-10-11T12:25:57.444Z,2.60
2018-10-11T12:28:25.737Z,2.80
2018-10-11T12:30:53.835Z,3.37
2018-10-11T12:33:22.013Z,2.30
2018-10-11T12:35:50.226Z,2.53
2018-10-11T12:38:18.405Z,2.30
2018-10-11T12:40:46.609Z,1.90
2018-10-11T12:43:14.778Z,3.63
2018-10-11T12:45:42.965Z,2.20
2018-10-11T12:48:11.196Z,2.60
2018-10-11T12:50:39.401Z,2.33
2018-10-11T12:53:07.649Z,2.17
2018-10-11T12:55:35.966Z,2.00
2018-10-11T12:58:04.141Z,2.03
2018-10-11T13:00:32.350Z,1.70
2018-10-11T13:03:00.614Z,2.20
2018-10-11T13:05:28.723Z,2.50
2018-10-11T13:07:56.909Z,1.90
2018-10-11T13:10:25.117Z,1.97
2018-10-11T13:12:53.289Z,1.90
2018-10-11T13:15:21.494Z,2.10
2018-10-11T13:17:49.674Z,2.50
2018-10-11T13:20:17.889Z,2.13
2018-10-11T13:22:46.108Z,2.60
2018-10-11T13:25:14.262Z,2.23
2018-10-11T13:27:42.435Z,2.47
2018-10-11T13:30:10.638Z,2.53
2018-10-11T13:32:38.810Z,3.30
2018-10-11T13:35:07.285Z,2.20
2018-10-11T13:37:35.440Z,1.93
2018-10-11T13:40:04.181Z,2.03
2018-10-11T13:42:32.460Z,2.77
2018-10-11T13:45:01.041Z,2.17
2018-10-11T13:47:29.486Z,2.43
2018-10-11T13:49:57.717Z,2.03
2018-10-11T13:52:25.904Z,3.10
2018-10-11T13:54:54.069Z,2.03
2018-10-11T13:57:25.119Z,2.33
2018-10-11T13:59:50.436Z,2.30
2018-10-11T14:02:18.960Z,2.93
2018-10-11T14:04:47.116Z,2.87
2018-10-11T14:07:15.301Z,3.80
2018-10-11T14:09:43.473Z,3.07
2018-10-11T14:12:11.673Z,2.40
2018-10-11T14:14:39.850Z,2.23
2018-10-11T14:17:08.094Z,1.90
2018-10-11T14:19:36.269Z,1.70
2018-10-11T14:22:04.459Z,3.17
2018-10-11T14:24:32.645Z,2.03
2018-10-11T14:27:00.836Z,2.10
2018-10-11T14:29:29.005Z,2.00
2018-10-11T14:31:57.201Z,2.27
2018-10-11T14:34:25.375Z,2.47
2018-10-11T14:36:53.693Z,2.43
2018-10-11T14:39:21.909Z,2.20
2018-10-11T14:41:50.097Z,2.00
2018-10-11T14:44:18.253Z,2.57
2018-10-11T14:46:46.470Z,2.30
2018-10-11T14:49:14.643Z,2.10
2018-10-11T14:51:46.442Z,2.03
2018-10-11T14:54:11.019Z,2.00
2018-10-11T14:56:39.233Z,1.70
2018-10-11T14:59:07.409Z,2.30
2018-10-11T15:01:35.600Z,2.73
2018-10-11T15:04:03.782Z,1.70
2018-10-11T15:06:31.977Z,2.13
2018-10-11T15:09:00.161Z,1.97
2018-10-11T15:11:28.528Z,4.17
2018-10-11T15:13:56.798Z,2.30
2018-10-11T15:16:24.981Z,1.93
2018-10-11T15:18:53.157Z,1.80
2018-10-11T15:21:21.364Z,2.10
2018-10-11T15:23:49.571Z,1.90
2018-10-11T15:26:17.737Z,1.70
2018-10-11T15:28:45.928Z,2.13
2018-10-11T15:31:14.321Z,1.57
2018-10-11T15:33:42.501Z,1.60
2018-10-11T15:36:10.673Z,1.60
2018-10-11T15:38:38.867Z,1.37
2018-10-11T15:41:07.415Z,1.90
2018-10-11T15:43:35.709Z,2.80
2018-10-11T15:46:03.907Z,1.87
2018-10-11T15:48:32.087Z,1.80
2018-10-11T15:51:00.274Z,1.47
2018-10-11T15:53:28.484Z,2.37
2018-10-11T15:55:56.666Z,2.23
2018-10-11T15:58:25.153Z,1.60
2018-10-11T16:00:53.277Z,2.27
2018-10-11T16:03:21.473Z,1.50
2018-10-11T16:05:49.677Z,2.17
2018-10-11T16:08:17.871Z,2.13
2018-10-11T16:10:46.104Z,2.13
2018-10-11T16:13:14.293Z,2.07
2018-10-11T16:15:42.497Z,1.90
2018-10-11T16:18:10.689Z,2.30
2018-10-11T16:20:38.853Z,2.73
2018-10-11T16:23:07.041Z,3.43
2018-10-11T16:25:35.273Z,2.70
2018-10-11T16:28:03.475Z,2.80
2018-10-11T16:30:31.642Z,2.40
2018-10-11T16:32:59.836Z,2.40
2018-10-11T16:35:28.768Z,4.10
2018-10-11T16:37:56.977Z,2.40
2018-10-11T16:40:25.143Z,2.30
2018-10-11T16:42:53.350Z,3.03
2018-10-11T16:45:21.916Z,1.77
2018-10-11T16:47:50.153Z,2.60
2018-10-11T16:50:18.553Z,2.50
2018-10-11T16:52:46.744Z,1.70
2018-10-11T16:55:15.615Z,1.70
2018-10-11T16:57:43.797Z,1.47
2018-10-11T17:00:11.978Z,1.70
2018-10-11T17:02:40.165Z,2.37
2018-10-11T17:05:08.378Z,2.53
2018-10-11T17:07:36.566Z,2.17
2018-10-11T17:10:04.856Z,2.00
2018-10-11T17:12:33.039Z,2.00
2018-10-11T17:15:01.246Z,1.63
2018-10-11T17:17:30.505Z,1.10
2018-10-11T17:19:58.710Z,1.90
2018-10-11T17:22:26.885Z,1.33
2018-10-11T17:24:55.181Z,1.47
2018-10-11T17:27:23.721Z,1.40
2018-10-11T17:29:52.171Z,1.50
2018-10-11T17:32:20.246Z,1.30
2018-10-11T17:34:49.045Z,1.50
2018-10-11T17:37:17.228Z,1.30
2018-10-11T17:39:45.415Z,1.30
2018-10-11T17:42:13.605Z,1.17
2018-10-11T17:44:41.787Z,1.50
2018-10-11T17:47:09.960Z,1.30
2018-10-11T17:49:38.236Z,1.20
2018-10-11T17:52:06.449Z,1.20
2018-10-11T17:54:34.711Z,1.03
2018-10-11T17:57:02.910Z,1.20
2018-10-11T17:59:31.096Z,1.73
2018-10-11T18:01:59.282Z,1.70
2018-10-11T18:04:27.485Z,1.63
2018-10-11T18:06:55.670Z,2.37
2018-10-11T18:09:23.881Z,1.67
2018-10-11T18:11:52.090Z,1.80
2018-10-11T18:14:20.306Z,1.60
2018-10-11T18:16:48.481Z,2.77
2018-10-11T18:19:16.676Z,2.53
2018-10-11T18:21:44.983Z,3.00
2018-10-11T18:24:13.041Z,3.03
2018-10-11T18:26:41.289Z,3.37
2018-10-11T18:29:09.552Z,3.53
2018-10-11T18:31:37.687Z,5.90
2018-10-11T18:34:05.881Z,3.73
2018-10-11T18:36:35.225Z,4.20
2018-10-11T18:39:07.769Z,4.93
2018-10-11T18:41:36.592Z,5.57
2018-10-11T18:44:06.099Z,4.20
2018-10-11T18:46:35.528Z,3.43
2018-10-11T18:49:05.841Z,4.13
2018-10-11T18:51:35.170Z,5.10
2018-10-11T18:54:04.568Z,5.17
2018-10-11T18:56:33.862Z,4.57
2018-10-11T18:59:03.379Z,4.17
2018-10-11T19:01:32.738Z,3.77
2018-10-11T19:04:01.839Z,3.80
2018-10-11T19:06:31.165Z,5.70
2018-10-11T19:09:00.929Z,3.83
2018-10-11T19:11:30.480Z,5.07
2018-10-11T19:13:59.843Z,5.17
2018-10-11T19:16:29.061Z,4.30
2018-10-11T19:18:57.313Z,3.93
2018-10-11T19:21:25.496Z,8.10
2018-10-11T19:23:53.699Z,5.50
2018-10-11T19:26:21.901Z,4.20
2018-10-11T19:28:50.137Z,4.93
2018-10-11T19:31:20.215Z,4.67
2018-10-11T19:33:50.093Z,4.27
2018-10-11T19:36:20.075Z,4.07
2018-10-11T19:38:49.379Z,4.57
2018-10-11T19:41:19.547Z,3.87
2018-10-11T19:43:48.849Z,5.23
2018-10-11T19:46:18.595Z,3.90
2018-10-11T19:48:47.138Z,3.97
2018-10-11T19:51:17.478Z,3.97
2018-10-11T19:53:45.677Z,4.33
2018-10-11T19:56:14.108Z,3.30
2018-10-11T19:58:42.209Z,4.17
2018-10-11T20:01:10.518Z,3.77
2018-10-11T20:03:38.822Z,3.90
2018-10-11T20:06:35.290Z,4.43
2018-10-11T20:09:04.163Z,4.10
2018-10-11T20:11:32.437Z,4.27
2018-10-11T20:14:01.198Z,3.67
2018-10-11T20:16:29.405Z,5.43
2018-10-11T20:18:57.628Z,4.87
2018-10-11T20:21:26.333Z,4.23
2018-10-11T20:23:54.545Z,4.20
2018-10-11T20:26:23.238Z,4.20
2018-10-11T20:28:51.710Z,3.87
2018-10-11T20:31:20.231Z,4.10
2018-10-11T20:33:51.439Z,4.63
2018-10-11T20:36:19.746Z,4.60
2018-10-11T20:38:49.510Z,4.40
2018-10-11T20:41:17.816Z,4.63
2018-10-11T20:43:46.071Z,4.63
2018-10-11T20:46:14.308Z,4.70
2018-10-11T20:48:42.608Z,4.83
2018-10-11T20:51:10.912Z,4.43
2018-10-11T20:53:40.351Z,4.00
2018-10-11T20:56:08.619Z,4.30
2018-10-11T20:58:36.781Z,4.13
2018-10-11T21:01:05.264Z,5.07
2018-10-11T21:03:33.445Z,4.83
2018-10-11T21:06:01.724Z,4.43
2018-10-11T21:08:30.687Z,3.67
2018-10-11T21:10:58.939Z,6.60
2018-10-11T21:13:27.123Z,4.37
2018-10-11T21:15:55.346Z,4.40
2018-10-11T21:18:25.146Z,4.30
2018-10-11T21:20:53.416Z,4.50
2018-10-11T21:23:21.689Z,4.33
2018-10-11T21:25:49.974Z,4.90
2018-10-11T21:28:18.210Z,4.73
2018-10-11T21:30:46.350Z,4.27
2018-10-11T21:33:14.532Z,3.83
2018-10-11T21:35:42.773Z,4.07
2018-10-11T21:38:10.942Z,5.70
2018-10-11T21:40:39.141Z,4.07
2018-10-11T21:43:07.318Z,5.60
2018-10-11T21:45:35.658Z,4.80
2018-10-11T21:48:03.881Z,4.20
2018-10-11T21:50:32.083Z,3.70
2018-10-11T21:53:00.277Z,4.73
2018-10-11T21:55:28.493Z,3.60
2018-10-11T21:57:57.713Z,3.77
2018-10-11T22:00:31.350Z,4.10
2018-10-11T22:02:59.533Z,3.67
2018-10-11T22:05:27.988Z,4.30
2018-10-11T22:07:56.181Z,3.63
2018-10-11T22:10:24.572Z,3.50
2018-10-11T22:12:52.769Z,4.77
2018-10-11T22:15:20.968Z,3.73
2018-10-11T22:17:49.137Z,3.40
2018-10-11T22:20:17.350Z,3.63
2018-10-11T22:22:45.524Z,3.60
2018-10-11T22:25:13.733Z,3.00
2018-10-11T22:27:42.197Z,3.63
2018-10-11T22:30:10.833Z,3.47
2018-10-11T22:32:39.012Z,3.20
2018-10-11T22:35:07.202Z,3.50
2018-10-11T22:37:35.430Z,3.87
2018-10-11T22:40:03.575Z,2.97
2018-10-11T22:42:31.757Z,3.07
2018-10-11T22:44:59.941Z,3.60
2018-10-11T22:47:28.178Z,3.20
2018-10-11T22:49:56.365Z,2.40
2018-10-11T22:52:24.834Z,3.70
2018-10-11T22:54:53.037Z,4.37
2018-10-11T22:57:21.227Z,5.07
2018-10-11T22:59:49.445Z,3.57
2018-10-11T23:02:17.616Z,4.77
2018-10-11T23:04:45.810Z,3.70
2018-10-11T23:07:14.385Z,3.53
2018-10-11T23:09:42.581Z,4.33
2018-10-11T23:12:10.760Z,3.57
2018-10-11T23:14:39.037Z,3.33
2018-10-11T23:17:07.134Z,3.73
2018-10-11T23:19:35.324Z,3.30
2018-10-11T23:22:10.779Z,4.97
2018-10-11T23:24:38.979Z,3.40
2018-10-11T23:27:07.261Z,3.70
2018-10-11T23:29:35.473Z,3.33
2018-10-11T23:32:03.649Z,3.30
2018-10-11T23:34:31.841Z,4.50
2018-10-11T23:37:00.019Z,4.03
2018-10-11T23:39:28.210Z,3.47
2018-10-11T23:41:56.381Z,4.10
2018-10-11T23:44:24.581Z,3.50
2018-10-11T23:46:52.808Z,3.10
2018-10-11T23:49:20.972Z,3.37
2018-10-11T23:51:49.205Z,2.60
2018-10-11T23:54:17.373Z,2.93
2018-10-11T23:56:45.557Z,3.13
2018-10-11T23:59:13.742Z,2.83
